sensor_id;sensor_type;location;lat;lon;timestamp;P1;durP1;ratioP1;P2;durP2;ratioP2
19877;SDS011;10101;52.204;9.910;2024-03-06T00:02:11;15.97;;;9.80;;
19877;SDS011;10101;52.204;9.910;2024-03-06T00:04:39;17.27;;;10.00;;
19877;SDS011;10101;52.204;9.910;2024-03-06T00:07:06;13.50;;;9.60;;
19877;SDS011;10101;52.204;9.910;2024-03-06T00:09:33;13.03;;;8.53;;
19877;SDS011;10101;52.204;9.910;2024-03-06T00:12:00;16.23;;;9.53;;
19877;SDS011;10101;52.204;9.910;2024-03-06T00:14:26;17.93;;;9.73;;
19877;SDS011;10101;52.204;9.910;2024-03-06T00:16:53;13.27;;;9.77;;
19877;SDS011;10101;52.204;9.910;2024-03-06T00:19:21;14.97;;;9.53;;
19877;SDS011;10101;52.204;9.910;2024-03-06T00:21:49;13.70;;;9.77;;
19877;SDS011;10101;52.204;9.910;2024-03-06T00:24:16;17.90;;;10.43;;
19877;SDS011;10101;52.204;9.910;2024-03-06T00:26:43;15.30;;;9.73;;
19877;SDS011;10101;52.204;9.910;2024-03-06T00:29:12;18.00;;;10.90;;
19877;SDS011;10101;52.204;9.910;2024-03-06T00:31:42;15.53;;;9.93;;
19877;SDS011;10101;52.204;9.910;2024-03-06T00:34:09;13.70;;;9.67;;
19877;SDS011;10101;52.204;9.910;2024-03-06T00:36:39;17.63;;;11.63;;
19877;SDS011;10101;52.204;9.910;2024-03-06T00:39:07;20.27;;;11.20;;
19877;SDS011;10101;52.204;9.910;2024-03-06T00:41:34;19.43;;;11.37;;
19877;SDS011;10101;52.204;9.910;2024-03-06T00:44:01;16.90;;;10.90;;
19877;SDS011;10101;52.204;9.910;2024-03-06T00:46:28;18.73;;;10.67;;
19877;SDS011;10101;52.204;9.910;2024-03-06T00:48:54;17.57;;;11.50;;
19877;SDS011;10101;52.204;9.910;2024-03-06T00:51:21;15.73;;;10.63;;
19877;SDS011;10101;52.204;9.910;2024-03-06T00:53:48;19.17;;;11.77;;
19877;SDS011;10101;52.204;9.910;2024-03-06T00:56:16;18.23;;;11.53;;
19877;SDS011;10101;52.204;9.910;2024-03-06T00:58:42;18.47;;;11.17;;
19877;SDS011;10101;52.204;9.910;2024-03-06T01:01:10;20.13;;;12.40;;
19877;SDS011;10101;52.204;9.910;2024-03-06T01:03:37;18.40;;;11.57;;
19877;SDS011;10101;52.204;9.910;2024-03-06T01:06:04;16.87;;;11.60;;
19877;SDS011;10101;52.204;9.910;2024-03-06T01:08:31;19.37;;;11.87;;
19877;SDS011;10101;52.204;9.910;2024-03-06T01:10:58;19.83;;;11.93;;
19877;SDS011;10101;52.204;9.910;2024-03-06T01:13:26;16.40;;;11.57;;
19877;SDS011;10101;52.204;9.910;2024-03-06T01:15:52;16.33;;;10.97;;
19877;SDS011;10101;52.204;9.910;2024-03-06T01:18:19;18.23;;;11.97;;
19877;SDS011;10101;52.204;9.910;2024-03-06T01:20:46;18.03;;;11.70;;
19877;SDS011;10101;52.204;9.910;2024-03-06T01:23:12;19.20;;;12.80;;
19877;SDS011;10101;52.204;9.910;2024-03-06T01:25:40;18.57;;;11.47;;
19877;SDS011;10101;52.204;9.910;2024-03-06T01:28:06;20.40;;;12.20;;
19877;SDS011;10101;52.204;9.910;2024-03-06T01:30:34;20.83;;;12.87;;
19877;SDS011;10101;52.204;9.910;2024-03-06T01:33:01;20.13;;;12.30;;
19877;SDS011;10101;52.204;9.910;2024-03-06T01:35:30;18.43;;;11.80;;
19877;SDS011;10101;52.204;9.910;2024-03-06T01:37:56;20.00;;;12.17;;
19877;SDS011;10101;52.204;9.910;2024-03-06T01:40:23;19.43;;;12.07;;
19877;SDS011;10101;52.204;9.910;2024-03-06T01:42:50;20.20;;;12.13;;
19877;SDS011;10101;52.204;9.910;2024-03-06T01:45:17;21.23;;;12.07;;
19877;SDS011;10101;52.204;9.910;2024-03-06T01:47:46;22.83;;;13.07;;
19877;SDS011;10101;52.204;9.910;2024-03-06T01:50:13;19.93;;;12.53;;
19877;SDS011;10101;52.204;9.910;2024-03-06T01:52:40;19.47;;;11.93;;
19877;SDS011;10101;52.204;9.910;2024-03-06T01:55:09;21.80;;;12.33;;
19877;SDS011;10101;52.204;9.910;2024-03-06T01:57:36;19.20;;;13.10;;
19877;SDS011;10101;52.204;9.910;2024-03-06T02:00:06;18.70;;;11.70;;
19877;SDS011;10101;52.204;9.910;2024-03-06T02:02:38;20.00;;;11.47;;
19877;SDS011;10101;52.204;9.910;2024-03-06T02:05:08;26.77;;;13.10;;
19877;SDS011;10101;52.204;9.910;2024-03-06T02:07:35;20.30;;;12.67;;
19877;SDS011;10101;52.204;9.910;2024-03-06T02:10:04;20.37;;;12.77;;
19877;SDS011;10101;52.204;9.910;2024-03-06T02:12:33;23.60;;;12.23;;
19877;SDS011;10101;52.204;9.910;2024-03-06T02:15:00;19.53;;;11.30;;
19877;SDS011;10101;52.204;9.910;2024-03-06T02:17:28;19.20;;;13.00;;
19877;SDS011;10101;52.204;9.910;2024-03-06T02:19:55;19.00;;;11.60;;
19877;SDS011;10101;52.204;9.910;2024-03-06T02:22:24;20.37;;;12.27;;
19877;SDS011;10101;52.204;9.910;2024-03-06T02:24:51;17.50;;;11.60;;
19877;SDS011;10101;52.204;9.910;2024-03-06T02:27:18;21.00;;;12.47;;
19877;SDS011;10101;52.204;9.910;2024-03-06T02:29:45;18.77;;;11.80;;
19877;SDS011;10101;52.204;9.910;2024-03-06T02:32:12;19.57;;;12.30;;
19877;SDS011;10101;52.204;9.910;2024-03-06T02:34:39;20.43;;;12.27;;
19877;SDS011;10101;52.204;9.910;2024-03-06T02:37:06;19.37;;;12.20;;
19877;SDS011;10101;52.204;9.910;2024-03-06T02:39:34;20.33;;;12.47;;
19877;SDS011;10101;52.204;9.910;2024-03-06T02:42:01;21.40;;;12.53;;
19877;SDS011;10101;52.204;9.910;2024-03-06T02:44:29;19.40;;;12.73;;
19877;SDS011;10101;52.204;9.910;2024-03-06T02:46:55;21.87;;;12.47;;
19877;SDS011;10101;52.204;9.910;2024-03-06T02:49:22;20.17;;;11.23;;
19877;SDS011;10101;52.204;9.910;2024-03-06T02:51:49;21.30;;;12.43;;
19877;SDS011;10101;52.204;9.910;2024-03-06T02:54:15;19.30;;;12.67;;
19877;SDS011;10101;52.204;9.910;2024-03-06T02:56:43;18.40;;;12.33;;
19877;SDS011;10101;52.204;9.910;2024-03-06T02:59:10;19.47;;;12.33;;
19877;SDS011;10101;52.204;9.910;2024-03-06T03:01:38;19.83;;;12.03;;
19877;SDS011;10101;52.204;9.910;2024-03-06T03:04:04;20.10;;;12.97;;
19877;SDS011;10101;52.204;9.910;2024-03-06T03:06:31;20.67;;;12.30;;
19877;SDS011;10101;52.204;9.910;2024-03-06T03:08:58;18.00;;;12.17;;
19877;SDS011;10101;52.204;9.910;2024-03-06T03:11:25;20.37;;;11.30;;
19877;SDS011;10101;52.204;9.910;2024-03-06T03:13:53;17.40;;;11.40;;
19877;SDS011;10101;52.204;9.910;2024-03-06T03:16:20;19.03;;;12.17;;
19877;SDS011;10101;52.204;9.910;2024-03-06T03:18:46;19.93;;;12.20;;
19877;SDS011;10101;52.204;9.910;2024-03-06T03:21:13;19.90;;;12.07;;
19877;SDS011;10101;52.204;9.910;2024-03-06T03:23:40;21.67;;;12.20;;
19877;SDS011;10101;52.204;9.910;2024-03-06T03:26:07;17.67;;;11.83;;
19877;SDS011;10101;52.204;9.910;2024-03-06T03:28:37;16.37;;;11.83;;
19877;SDS011;10101;52.204;9.910;2024-03-06T03:31:05;18.23;;;11.63;;
19877;SDS011;10101;52.204;9.910;2024-03-06T03:33:33;17.00;;;11.67;;
19877;SDS011;10101;52.204;9.910;2024-03-06T03:36:03;19.47;;;11.50;;
19877;SDS011;10101;52.204;9.910;2024-03-06T03:38:30;19.20;;;11.33;;
19877;SDS011;10101;52.204;9.910;2024-03-06T03:40:57;18.00;;;11.50;;
19877;SDS011;10101;52.204;9.910;2024-03-06T03:43:24;19.60;;;11.57;;
19877;SDS011;10101;52.204;9.910;2024-03-06T03:45:51;21.07;;;11.80;;
19877;SDS011;10101;52.204;9.910;2024-03-06T03:48:19;18.90;;;11.70;;
19877;SDS011;10101;52.204;9.910;2024-03-06T03:50:45;17.47;;;11.40;;
19877;SDS011;10101;52.204;9.910;2024-03-06T03:53:12;19.20;;;11.80;;
19877;SDS011;10101;52.204;9.910;2024-03-06T03:55:39;20.00;;;11.87;;
19877;SDS011;10101;52.204;9.910;2024-03-06T03:58:06;19.20;;;11.90;;
19877;SDS011;10101;52.204;9.910;2024-03-06T04:00:32;21.90;;;11.60;;
19877;SDS011;10101;52.204;9.910;2024-03-06T04:02:59;21.10;;;11.73;;
19877;SDS011;10101;52.204;9.910;2024-03-06T04:05:28;17.33;;;11.83;;
19877;SDS011;10101;52.204;9.910;2024-03-06T04:07:56;17.13;;;11.20;;
19877;SDS011;10101;52.204;9.910;2024-03-06T04:10:23;20.90;;;11.90;;
19877;SDS011;10101;52.204;9.910;2024-03-06T04:12:50;19.53;;;11.80;;
19877;SDS011;10101;52.204;9.910;2024-03-06T04:15:16;18.47;;;11.40;;
19877;SDS011;10101;52.204;9.910;2024-03-06T04:17:44;18.53;;;12.07;;
19877;SDS011;10101;52.204;9.910;2024-03-06T04:20:10;19.57;;;11.33;;
19877;SDS011;10101;52.204;9.910;2024-03-06T04:22:39;19.87;;;12.00;;
19877;SDS011;10101;52.204;9.910;2024-03-06T04:25:06;16.53;;;11.03;;
19877;SDS011;10101;52.204;9.910;2024-03-06T04:27:34;16.20;;;11.13;;
19877;SDS011;10101;52.204;9.910;2024-03-06T04:30:01;17.10;;;11.37;;
19877;SDS011;10101;52.204;9.910;2024-03-06T04:32:29;18.33;;;11.53;;
19877;SDS011;10101;52.204;9.910;2024-03-06T04:34:55;18.90;;;11.27;;
19877;SDS011;10101;52.204;9.910;2024-03-06T04:37:22;18.50;;;11.70;;
19877;SDS011;10101;52.204;9.910;2024-03-06T04:39:52;18.23;;;10.73;;
19877;SDS011;10101;52.204;9.910;2024-03-06T04:42:19;19.60;;;11.13;;
19877;SDS011;10101;52.204;9.910;2024-03-06T04:44:46;17.23;;;11.47;;
19877;SDS011;10101;52.204;9.910;2024-03-06T04:47:12;20.93;;;11.43;;
19877;SDS011;10101;52.204;9.910;2024-03-06T04:49:39;16.60;;;11.50;;
19877;SDS011;10101;52.204;9.910;2024-03-06T04:52:06;20.10;;;11.80;;
19877;SDS011;10101;52.204;9.910;2024-03-06T04:54:34;19.70;;;11.83;;
19877;SDS011;10101;52.204;9.910;2024-03-06T04:57:02;17.47;;;11.30;;
19877;SDS011;10101;52.204;9.910;2024-03-06T04:59:29;22.67;;;11.87;;
19877;SDS011;10101;52.204;9.910;2024-03-06T05:01:56;20.77;;;10.57;;
19877;SDS011;10101;52.204;9.910;2024-03-06T05:04:23;19.40;;;10.70;;
19877;SDS011;10101;52.204;9.910;2024-03-06T05:06:49;17.37;;;10.83;;
19877;SDS011;10101;52.204;9.910;2024-03-06T05:09:16;17.83;;;11.40;;
19877;SDS011;10101;52.204;9.910;2024-03-06T05:11:43;17.47;;;10.80;;
19877;SDS011;10101;52.204;9.910;2024-03-06T05:14:11;25.93;;;11.20;;
19877;SDS011;10101;52.204;9.910;2024-03-06T05:16:38;16.60;;;11.23;;
19877;SDS011;10101;52.204;9.910;2024-03-06T05:19:05;19.57;;;10.97;;
19877;SDS011;10101;52.204;9.910;2024-03-06T05:21:32;18.07;;;11.00;;
19877;SDS011;10101;52.204;9.910;2024-03-06T05:24:00;17.47;;;11.33;;
19877;SDS011;10101;52.204;9.910;2024-03-06T05:26:27;19.33;;;10.97;;
19877;SDS011;10101;52.204;9.910;2024-03-06T05:28:54;18.53;;;11.27;;
19877;SDS011;10101;52.204;9.910;2024-03-06T05:31:22;18.37;;;10.40;;
19877;SDS011;10101;52.204;9.910;2024-03-06T05:33:50;28.27;;;11.77;;
19877;SDS011;10101;52.204;9.910;2024-03-06T05:36:17;16.60;;;11.97;;
19877;SDS011;10101;52.204;9.910;2024-03-06T05:38:44;18.30;;;11.60;;
19877;SDS011;10101;52.204;9.910;2024-03-06T05:41:12;19.33;;;11.50;;
19877;SDS011;10101;52.204;9.910;2024-03-06T05:43:40;17.83;;;11.33;;
19877;SDS011;10101;52.204;9.910;2024-03-06T05:46:07;16.60;;;10.90;;
19877;SDS011;10101;52.204;9.910;2024-03-06T05:48:35;18.87;;;11.63;;
19877;SDS011;10101;52.204;9.910;2024-03-06T05:51:01;19.40;;;11.50;;
19877;SDS011;10101;52.204;9.910;2024-03-06T05:53:28;17.63;;;11.07;;
19877;SDS011;10101;52.204;9.910;2024-03-06T05:55:55;17.83;;;11.50;;
19877;SDS011;10101;52.204;9.910;2024-03-06T05:58:22;18.80;;;11.43;;
19877;SDS011;10101;52.204;9.910;2024-03-06T06:00:48;18.77;;;10.73;;
19877;SDS011;10101;52.204;9.910;2024-03-06T06:03:15;17.53;;;11.00;;
19877;SDS011;10101;52.204;9.910;2024-03-06T06:05:43;19.40;;;11.07;;
19877;SDS011;10101;52.204;9.910;2024-03-06T06:08:10;18.30;;;12.20;;
19877;SDS011;10101;52.204;9.910;2024-03-06T06:10:37;17.70;;;11.43;;
19877;SDS011;10101;52.204;9.910;2024-03-06T06:13:04;17.73;;;11.03;;
19877;SDS011;10101;52.204;9.910;2024-03-06T06:15:30;18.40;;;11.57;;
19877;SDS011;10101;52.204;9.910;2024-03-06T06:17:57;18.63;;;11.10;;
19877;SDS011;10101;52.204;9.910;2024-03-06T06:20:24;17.67;;;11.10;;
19877;SDS011;10101;52.204;9.910;2024-03-06T06:22:52;22.83;;;11.63;;
19877;SDS011;10101;52.204;9.910;2024-03-06T06:25:19;18.20;;;11.37;;
19877;SDS011;10101;52.204;9.910;2024-03-06T06:27:46;22.07;;;11.60;;
19877;SDS011;10101;52.204;9.910;2024-03-06T06:30:14;18.77;;;11.83;;
19877;SDS011;10101;52.204;9.910;2024-03-06T06:32:41;19.83;;;11.40;;
19877;SDS011;10101;52.204;9.910;2024-03-06T06:35:08;20.10;;;12.00;;
19877;SDS011;10101;52.204;9.910;2024-03-06T06:37:37;22.43;;;12.70;;
19877;SDS011;10101;52.204;9.910;2024-03-06T06:40:06;18.30;;;11.50;;
19877;SDS011;10101;52.204;9.910;2024-03-06T06:42:35;19.30;;;11.40;;
19877;SDS011;10101;52.204;9.910;2024-03-06T06:45:02;20.43;;;12.17;;
19877;SDS011;10101;52.204;9.910;2024-03-06T06:47:31;21.03;;;11.97;;
19877;SDS011;10101;52.204;9.910;2024-03-06T06:49:58;21.27;;;11.90;;
19877;SDS011;10101;52.204;9.910;2024-03-06T06:52:25;18.40;;;11.10;;
19877;SDS011;10101;52.204;9.910;2024-03-06T06:54:52;16.90;;;11.37;;
19877;SDS011;10101;52.204;9.910;2024-03-06T06:57:20;21.10;;;12.53;;
19877;SDS011;10101;52.204;9.910;2024-03-06T06:59:47;21.37;;;11.50;;
19877;SDS011;10101;52.204;9.910;2024-03-06T07:02:14;17.47;;;10.90;;
19877;SDS011;10101;52.204;9.910;2024-03-06T07:04:40;22.27;;;12.30;;
19877;SDS011;10101;52.204;9.910;2024-03-06T07:07:07;19.40;;;12.27;;
19877;SDS011;10101;52.204;9.910;2024-03-06T07:09:34;19.03;;;11.47;;
19877;SDS011;10101;52.204;9.910;2024-03-06T07:12:00;22.87;;;11.97;;
19877;SDS011;10101;52.204;9.910;2024-03-06T07:14:29;18.77;;;12.10;;
19877;SDS011;10101;52.204;9.910;2024-03-06T07:16:56;19.47;;;12.30;;
19877;SDS011;10101;52.204;9.910;2024-03-06T07:19:22;20.43;;;11.77;;
19877;SDS011;10101;52.204;9.910;2024-03-06T07:21:49;18.77;;;11.23;;
19877;SDS011;10101;52.204;9.910;2024-03-06T07:24:17;18.63;;;11.70;;
19877;SDS011;10101;52.204;9.910;2024-03-06T07:26:43;18.70;;;11.93;;
19877;SDS011;10101;52.204;9.910;2024-03-06T07:29:10;20.80;;;12.57;;
19877;SDS011;10101;52.204;9.910;2024-03-06T07:31:41;20.90;;;12.13;;
19877;SDS011;10101;52.204;9.910;2024-03-06T07:34:08;22.13;;;12.10;;
19877;SDS011;10101;52.204;9.910;2024-03-06T07:36:35;21.17;;;12.40;;
19877;SDS011;10101;52.204;9.910;2024-03-06T07:39:02;17.30;;;11.50;;
19877;SDS011;10101;52.204;9.910;2024-03-06T07:41:30;17.73;;;11.00;;
19877;SDS011;10101;52.204;9.910;2024-03-06T07:43:57;21.40;;;12.87;;
19877;SDS011;10101;52.204;9.910;2024-03-06T07:46:25;20.97;;;11.80;;
19877;SDS011;10101;52.204;9.910;2024-03-06T07:48:53;21.30;;;12.60;;
19877;SDS011;10101;52.204;9.910;2024-03-06T07:51:20;19.00;;;11.87;;
19877;SDS011;10101;52.204;9.910;2024-03-06T07:53:46;18.70;;;11.67;;
19877;SDS011;10101;52.204;9.910;2024-03-06T07:56:15;20.10;;;11.73;;
19877;SDS011;10101;52.204;9.910;2024-03-06T07:58:42;19.33;;;11.73;;
19877;SDS011;10101;52.204;9.910;2024-03-06T08:01:09;16.47;;;11.10;;
19877;SDS011;10101;52.204;9.910;2024-03-06T08:03:38;18.23;;;12.17;;
19877;SDS011;10101;52.204;9.910;2024-03-06T08:06:07;20.60;;;11.20;;
19877;SDS011;10101;52.204;9.910;2024-03-06T08:08:34;19.47;;;11.57;;
19877;SDS011;10101;52.204;9.910;2024-03-06T08:11:01;21.90;;;12.63;;
19877;SDS011;10101;52.204;9.910;2024-03-06T08:13:28;22.17;;;11.77;;
19877;SDS011;10101;52.204;9.910;2024-03-06T08:15:55;19.30;;;12.10;;
19877;SDS011;10101;52.204;9.910;2024-03-06T08:18:22;19.67;;;12.77;;
19877;SDS011;10101;52.204;9.910;2024-03-06T08:20:48;17.90;;;11.33;;
19877;SDS011;10101;52.204;9.910;2024-03-06T08:23:16;18.63;;;11.50;;
19877;SDS011;10101;52.204;9.910;2024-03-06T08:25:43;19.60;;;11.47;;
19877;SDS011;10101;52.204;9.910;2024-03-06T08:28:10;18.27;;;11.93;;
19877;SDS011;10101;52.204;9.910;2024-03-06T08:30:37;18.00;;;12.43;;
19877;SDS011;10101;52.204;9.910;2024-03-06T08:33:04;18.70;;;11.30;;
19877;SDS011;10101;52.204;9.910;2024-03-06T08:35:30;18.57;;;12.23;;
19877;SDS011;10101;52.204;9.910;2024-03-06T08:37:57;22.03;;;11.43;;
19877;SDS011;10101;52.204;9.910;2024-03-06T08:40:25;18.93;;;12.00;;
19877;SDS011;10101;52.204;9.910;2024-03-06T08:42:53;19.47;;;12.17;;
19877;SDS011;10101;52.204;9.910;2024-03-06T08:45:20;20.43;;;12.43;;
19877;SDS011;10101;52.204;9.910;2024-03-06T08:47:48;21.93;;;12.90;;
19877;SDS011;10101;52.204;9.910;2024-03-06T08:50:17;20.73;;;11.83;;
19877;SDS011;10101;52.204;9.910;2024-03-06T08:52:44;22.33;;;12.73;;
19877;SDS011;10101;52.204;9.910;2024-03-06T08:55:11;21.47;;;12.90;;
19877;SDS011;10101;52.204;9.910;2024-03-06T08:57:40;19.87;;;12.77;;
19877;SDS011;10101;52.204;9.910;2024-03-06T09:00:07;21.13;;;12.63;;
19877;SDS011;10101;52.204;9.910;2024-03-06T09:02:35;23.23;;;12.27;;
19877;SDS011;10101;52.204;9.910;2024-03-06T09:05:03;22.23;;;13.00;;
19877;SDS011;10101;52.204;9.910;2024-03-06T09:07:30;21.40;;;12.57;;
19877;SDS011;10101;52.204;9.910;2024-03-06T09:10:02;21.00;;;13.13;;
19877;SDS011;10101;52.204;9.910;2024-03-06T09:12:30;22.17;;;12.60;;
19877;SDS011;10101;52.204;9.910;2024-03-06T09:14:58;18.67;;;12.13;;
19877;SDS011;10101;52.204;9.910;2024-03-06T09:17:26;19.57;;;12.83;;
19877;SDS011;10101;52.204;9.910;2024-03-06T09:19:53;20.77;;;12.20;;
19877;SDS011;10101;52.204;9.910;2024-03-06T09:22:20;20.10;;;12.37;;
19877;SDS011;10101;52.204;9.910;2024-03-06T09:24:46;23.73;;;13.10;;
19877;SDS011;10101;52.204;9.910;2024-03-06T09:27:13;20.80;;;13.33;;
19877;SDS011;10101;52.204;9.910;2024-03-06T09:29:41;21.43;;;13.20;;
19877;SDS011;10101;52.204;9.910;2024-03-06T09:32:10;24.33;;;14.10;;
19877;SDS011;10101;52.204;9.910;2024-03-06T09:34:40;22.37;;;13.40;;
19877;SDS011;10101;52.204;9.910;2024-03-06T09:37:07;21.97;;;14.53;;
19877;SDS011;10101;52.204;9.910;2024-03-06T09:39:34;20.97;;;13.77;;
19877;SDS011;10101;52.204;9.910;2024-03-06T09:42:01;25.20;;;15.10;;
19877;SDS011;10101;52.204;9.910;2024-03-06T09:44:28;27.17;;;13.90;;
19877;SDS011;10101;52.204;9.910;2024-03-06T09:46:55;23.23;;;14.10;;
19877;SDS011;10101;52.204;9.910;2024-03-06T09:49:29;24.73;;;13.93;;
19877;SDS011;10101;52.204;9.910;2024-03-06T09:51:57;23.27;;;14.53;;
19877;SDS011;10101;52.204;9.910;2024-03-06T09:54:25;24.90;;;14.73;;
19877;SDS011;10101;52.204;9.910;2024-03-06T09:56:53;24.47;;;13.73;;
19877;SDS011;10101;52.204;9.910;2024-03-06T09:59:24;21.53;;;13.47;;
19877;SDS011;10101;52.204;9.910;2024-03-06T10:01:53;26.07;;;14.40;;
19877;SDS011;10101;52.204;9.910;2024-03-06T10:04:21;23.47;;;13.93;;
19877;SDS011;10101;52.204;9.910;2024-03-06T10:06:52;24.80;;;14.30;;
19877;SDS011;10101;52.204;9.910;2024-03-06T10:09:20;24.50;;;15.00;;
19877;SDS011;10101;52.204;9.910;2024-03-06T10:11:47;23.27;;;14.30;;
19877;SDS011;10101;52.204;9.910;2024-03-06T10:14:14;25.83;;;14.17;;
19877;SDS011;10101;52.204;9.910;2024-03-06T10:16:51;29.70;;;14.73;;
19877;SDS011;10101;52.204;9.910;2024-03-06T10:19:19;22.37;;;14.07;;
19877;SDS011;10101;52.204;9.910;2024-03-06T10:21:46;23.40;;;13.90;;
19877;SDS011;10101;52.204;9.910;2024-03-06T10:24:17;26.77;;;14.90;;
19877;SDS011;10101;52.204;9.910;2024-03-06T10:26:45;23.30;;;13.57;;
19877;SDS011;10101;52.204;9.910;2024-03-06T10:29:15;20.90;;;13.87;;
19877;SDS011;10101;52.204;9.910;2024-03-06T10:31:49;23.23;;;14.53;;
19877;SDS011;10101;52.204;9.910;2024-03-06T10:34:19;24.23;;;14.37;;
19877;SDS011;10101;52.204;9.910;2024-03-06T10:36:47;23.00;;;13.93;;
19877;SDS011;10101;52.204;9.910;2024-03-06T10:39:22;21.03;;;13.30;;
19877;SDS011;10101;52.204;9.910;2024-03-06T10:41:51;24.93;;;13.70;;
19877;SDS011;10101;52.204;9.910;2024-03-06T10:44:20;22.13;;;13.57;;
19877;SDS011;10101;52.204;9.910;2024-03-06T10:46:48;18.87;;;12.73;;
19877;SDS011;10101;52.204;9.910;2024-03-06T10:49:26;25.77;;;13.60;;
19877;SDS011;10101;52.204;9.910;2024-03-06T10:51:55;23.57;;;13.03;;
19877;SDS011;10101;52.204;9.910;2024-03-06T10:54:27;17.80;;;12.77;;
19877;SDS011;10101;52.204;9.910;2024-03-06T10:56:55;21.70;;;13.03;;
19877;SDS011;10101;52.204;9.910;2024-03-06T10:59:24;22.07;;;13.10;;
19877;SDS011;10101;52.204;9.910;2024-03-06T11:01:53;23.43;;;13.30;;
19877;SDS011;10101;52.204;9.910;2024-03-06T11:04:22;20.33;;;13.30;;
19877;SDS011;10101;52.204;9.910;2024-03-06T11:06:51;21.73;;;12.97;;
19877;SDS011;10101;52.204;9.910;2024-03-06T11:09:18;21.33;;;13.73;;
19877;SDS011;10101;52.204;9.910;2024-03-06T11:11:50;24.27;;;13.77;;
19877;SDS011;10101;52.204;9.910;2024-03-06T11:14:18;19.73;;;12.33;;
19877;SDS011;10101;52.204;9.910;2024-03-06T11:16:56;18.50;;;11.70;;
19877;SDS011;10101;52.204;9.910;2024-03-06T11:19:25;21.70;;;12.87;;
19877;SDS011;10101;52.204;9.910;2024-03-06T11:21:52;18.00;;;12.40;;
19877;SDS011;10101;52.204;9.910;2024-03-06T11:24:19;19.33;;;12.10;;
19877;SDS011;10101;52.204;9.910;2024-03-06T11:26:48;22.90;;;12.73;;
19877;SDS011;10101;52.204;9.910;2024-03-06T11:29:17;21.70;;;12.30;;
19877;SDS011;10101;52.204;9.910;2024-03-06T11:32:01;19.97;;;12.83;;
19877;SDS011;10101;52.204;9.910;2024-03-06T11:34:35;22.67;;;12.03;;
19877;SDS011;10101;52.204;9.910;2024-03-06T11:37:03;21.07;;;11.87;;
19877;SDS011;10101;52.204;9.910;2024-03-06T11:39:34;24.83;;;12.67;;
19877;SDS011;10101;52.204;9.910;2024-03-06T11:42:03;23.10;;;12.50;;
19877;SDS011;10101;52.204;9.910;2024-03-06T11:44:33;18.63;;;12.33;;
19877;SDS011;10101;52.204;9.910;2024-03-06T11:47:01;20.20;;;12.33;;
19877;SDS011;10101;52.204;9.910;2024-03-06T11:49:28;18.13;;;12.23;;
19877;SDS011;10101;52.204;9.910;2024-03-06T11:51:59;21.00;;;12.70;;
19877;SDS011;10101;52.204;9.910;2024-03-06T11:54:27;19.73;;;12.17;;
19877;SDS011;10101;52.204;9.910;2024-03-06T11:56:55;20.03;;;11.87;;
19877;SDS011;10101;52.204;9.910;2024-03-06T11:59:24;17.50;;;11.50;;
19877;SDS011;10101;52.204;9.910;2024-03-06T12:01:52;20.67;;;12.27;;
19877;SDS011;10101;52.204;9.910;2024-03-06T12:04:19;19.03;;;11.73;;
19877;SDS011;10101;52.204;9.910;2024-03-06T12:06:45;18.97;;;12.17;;
19877;SDS011;10101;52.204;9.910;2024-03-06T12:09:13;19.73;;;12.77;;
19877;SDS011;10101;52.204;9.910;2024-03-06T12:11:40;20.53;;;12.47;;
19877;SDS011;10101;52.204;9.910;2024-03-06T12:14:12;19.97;;;12.37;;
19877;SDS011;10101;52.204;9.910;2024-03-06T12:16:42;22.87;;;12.00;;
19877;SDS011;10101;52.204;9.910;2024-03-06T12:19:09;23.10;;;11.63;;
19877;SDS011;10101;52.204;9.910;2024-03-06T12:21:36;16.73;;;11.40;;
19877;SDS011;10101;52.204;9.910;2024-03-06T12:24:06;19.87;;;13.03;;
19877;SDS011;10101;52.204;9.910;2024-03-06T12:26:34;19.50;;;12.07;;
19877;SDS011;10101;52.204;9.910;2024-03-06T12:29:07;19.87;;;11.93;;
19877;SDS011;10101;52.204;9.910;2024-03-06T12:31:35;20.53;;;11.80;;
19877;SDS011;10101;52.204;9.910;2024-03-06T12:34:04;21.47;;;12.50;;
19877;SDS011;10101;52.204;9.910;2024-03-06T12:36:31;20.27;;;12.03;;
19877;SDS011;10101;52.204;9.910;2024-03-06T12:38:59;17.90;;;11.73;;
19877;SDS011;10101;52.204;9.910;2024-03-06T12:41:27;23.53;;;12.77;;
19877;SDS011;10101;52.204;9.910;2024-03-06T12:43:54;20.57;;;12.13;;
19877;SDS011;10101;52.204;9.910;2024-03-06T12:46:22;19.10;;;12.63;;
19877;SDS011;10101;52.204;9.910;2024-03-06T12:48:50;20.90;;;12.37;;
19877;SDS011;10101;52.204;9.910;2024-03-06T12:51:20;20.83;;;13.00;;
19877;SDS011;10101;52.204;9.910;2024-03-06T12:53:47;19.43;;;11.87;;
19877;SDS011;10101;52.204;9.910;2024-03-06T12:56:14;19.77;;;12.07;;
19877;SDS011;10101;52.204;9.910;2024-03-06T12:58:41;19.90;;;11.83;;
19877;SDS011;10101;52.204;9.910;2024-03-06T13:01:07;20.90;;;12.70;;
19877;SDS011;10101;52.204;9.910;2024-03-06T13:03:35;20.00;;;12.03;;
19877;SDS011;10101;52.204;9.910;2024-03-06T13:06:02;17.47;;;11.77;;
19877;SDS011;10101;52.204;9.910;2024-03-06T13:08:31;19.43;;;12.80;;
19877;SDS011;10101;52.204;9.910;2024-03-06T13:10:58;19.10;;;12.60;;
19877;SDS011;10101;52.204;9.910;2024-03-06T13:13:24;20.67;;;12.50;;
19877;SDS011;10101;52.204;9.910;2024-03-06T13:15:53;19.27;;;13.27;;
19877;SDS011;10101;52.204;9.910;2024-03-06T13:18:20;20.63;;;11.83;;
19877;SDS011;10101;52.204;9.910;2024-03-06T13:20:47;22.20;;;12.70;;
19877;SDS011;10101;52.204;9.910;2024-03-06T13:23:14;25.93;;;13.60;;
19877;SDS011;10101;52.204;9.910;2024-03-06T13:25:42;20.33;;;12.63;;
19877;SDS011;10101;52.204;9.910;2024-03-06T13:28:10;20.13;;;12.23;;
19877;SDS011;10101;52.204;9.910;2024-03-06T13:30:37;19.83;;;11.87;;
19877;SDS011;10101;52.204;9.910;2024-03-06T13:33:04;18.90;;;11.77;;
19877;SDS011;10101;52.204;9.910;2024-03-06T13:35:32;21.73;;;12.13;;
19877;SDS011;10101;52.204;9.910;2024-03-06T13:37:59;19.27;;;12.03;;
19877;SDS011;10101;52.204;9.910;2024-03-06T13:40:28;24.57;;;12.93;;
19877;SDS011;10101;52.204;9.910;2024-03-06T13:42:56;19.07;;;12.33;;
19877;SDS011;10101;52.204;9.910;2024-03-06T13:45:22;19.27;;;13.37;;
19877;SDS011;10101;52.204;9.910;2024-03-06T13:47:48;22.40;;;13.07;;
19877;SDS011;10101;52.204;9.910;2024-03-06T13:50:15;19.53;;;13.10;;
19877;SDS011;10101;52.204;9.910;2024-03-06T13:52:42;19.87;;;12.83;;
19877;SDS011;10101;52.204;9.910;2024-03-06T13:55:10;22.03;;;13.40;;
19877;SDS011;10101;52.204;9.910;2024-03-06T13:57:37;19.07;;;12.83;;
19877;SDS011;10101;52.204;9.910;2024-03-06T14:00:06;28.57;;;13.60;;
19877;SDS011;10101;52.204;9.910;2024-03-06T14:02:42;22.43;;;13.00;;
19877;SDS011;10101;52.204;9.910;2024-03-06T14:05:09;22.10;;;13.27;;
19877;SDS011;10101;52.204;9.910;2024-03-06T14:07:35;23.10;;;13.03;;
19877;SDS011;10101;52.204;9.910;2024-03-06T14:10:02;21.83;;;13.50;;
19877;SDS011;10101;52.204;9.910;2024-03-06T14:12:30;23.40;;;13.80;;
19877;SDS011;10101;52.204;9.910;2024-03-06T14:14:56;22.60;;;13.60;;
19877;SDS011;10101;52.204;9.910;2024-03-06T14:17:24;21.97;;;13.63;;
19877;SDS011;10101;52.204;9.910;2024-03-06T14:19:51;17.90;;;12.33;;
19877;SDS011;10101;52.204;9.910;2024-03-06T14:22:18;22.50;;;13.03;;
19877;SDS011;10101;52.204;9.910;2024-03-06T14:24:45;22.27;;;12.87;;